Urb La Patagonia, Puerto Rico
Current Conditions -  °F | °C
As of 12:53 PM on Monday 22 Dec 2014 (Local Time) from TJNR Reporting Station
Scattered Clouds Scattered Clouds  
Wind Chill: 84°   Ceiling: Unl
Heat Index: 90°   Visibility: 10mi
Dew Point: 73°   Wind: 12mph
Humidity: 69%   Direction: 110°ESE
Pressure: 30.05"   Gusts: NA
Location:  18.1494°N, 65.8294°W
Report Text: TJNR 221653Z AUTO 11010KT 10SM SCT023 SCT032 29/23 A3005 RMK AO2 SLP176 T02890228
Loading
Personal Weather Stations






























Interactive Weather Map New forecast layout! Learn more

10-Day Weather Forecast

Advertisements
Track Severe Weather on mobile